sensor_id;sensor_type;location;lat;lon;timestamp;P1;durP1;ratioP1;P2;durP2;ratioP2
26946;SDS011;14501;52.282;10.560;2023-04-23T00:01:15;4.93;;;3.03;;
26946;SDS011;14501;52.282;10.560;2023-04-23T00:03:42;5.35;;;3.65;;
26946;SDS011;14501;52.282;10.560;2023-04-23T00:06:09;3.85;;;3.33;;
26946;SDS011;14501;52.282;10.560;2023-04-23T00:08:38;8.32;;;3.70;;
26946;SDS011;14501;52.282;10.560;2023-04-23T00:11:05;6.10;;;3.38;;
26946;SDS011;14501;52.282;10.560;2023-04-23T00:13:31;6.50;;;3.40;;
26946;SDS011;14501;52.282;10.560;2023-04-23T00:15:57;4.90;;;3.33;;
26946;SDS011;14501;52.282;10.560;2023-04-23T00:18:24;4.80;;;3.40;;
26946;SDS011;14501;52.282;10.560;2023-04-23T00:20:49;4.75;;;3.55;;
26946;SDS011;14501;52.282;10.560;2023-04-23T00:23:15;5.68;;;3.35;;
26946;SDS011;14501;52.282;10.560;2023-04-23T00:25:41;6.18;;;4.13;;
26946;SDS011;14501;52.282;10.560;2023-04-23T00:28:07;6.72;;;3.85;;
26946;SDS011;14501;52.282;10.560;2023-04-23T00:30:32;5.13;;;3.33;;
26946;SDS011;14501;52.282;10.560;2023-04-23T00:32:58;4.97;;;3.83;;
26946;SDS011;14501;52.282;10.560;2023-04-23T00:35:24;5.07;;;3.70;;
26946;SDS011;14501;52.282;10.560;2023-04-23T00:37:50;5.93;;;4.22;;
26946;SDS011;14501;52.282;10.560;2023-04-23T00:40:15;5.82;;;3.85;;
26946;SDS011;14501;52.282;10.560;2023-04-23T00:42:41;4.63;;;3.90;;
26946;SDS011;14501;52.282;10.560;2023-04-23T00:45:08;5.03;;;3.50;;
26946;SDS011;14501;52.282;10.560;2023-04-23T00:47:34;5.10;;;4.00;;
26946;SDS011;14501;52.282;10.560;2023-04-23T00:50:00;6.00;;;3.65;;
26946;SDS011;14501;52.282;10.560;2023-04-23T00:52:26;4.90;;;3.67;;
26946;SDS011;14501;52.282;10.560;2023-04-23T00:54:53;4.95;;;4.00;;
26946;SDS011;14501;52.282;10.560;2023-04-23T00:57:19;5.38;;;3.72;;
26946;SDS011;14501;52.282;10.560;2023-04-23T00:59:48;6.38;;;3.72;;
26946;SDS011;14501;52.282;10.560;2023-04-23T01:02:14;7.50;;;4.00;;
26946;SDS011;14501;52.282;10.560;2023-04-23T01:04:41;7.15;;;4.15;;
26946;SDS011;14501;52.282;10.560;2023-04-23T01:07:08;5.15;;;3.63;;
26946;SDS011;14501;52.282;10.560;2023-04-23T01:09:35;6.13;;;3.92;;
26946;SDS011;14501;52.282;10.560;2023-04-23T01:12:01;6.55;;;3.78;;
26946;SDS011;14501;52.282;10.560;2023-04-23T01:14:29;4.47;;;3.60;;
26946;SDS011;14501;52.282;10.560;2023-04-23T01:16:55;6.65;;;4.05;;
26946;SDS011;14501;52.282;10.560;2023-04-23T01:19:22;6.53;;;3.95;;
26946;SDS011;14501;52.282;10.560;2023-04-23T01:21:47;4.72;;;4.10;;
26946;SDS011;14501;52.282;10.560;2023-04-23T01:24:14;7.38;;;4.25;;
26946;SDS011;14501;52.282;10.560;2023-04-23T01:26:40;9.00;;;4.30;;
26946;SDS011;14501;52.282;10.560;2023-04-23T01:29:06;4.22;;;3.58;;
26946;SDS011;14501;52.282;10.560;2023-04-23T01:31:32;7.45;;;4.60;;
26946;SDS011;14501;52.282;10.560;2023-04-23T01:33:57;5.90;;;4.15;;
26946;SDS011;14501;52.282;10.560;2023-04-23T01:36:24;6.22;;;4.07;;
26946;SDS011;14501;52.282;10.560;2023-04-23T01:38:51;4.70;;;3.97;;
26946;SDS011;14501;52.282;10.560;2023-04-23T01:41:17;8.23;;;5.80;;
26946;SDS011;14501;52.282;10.560;2023-04-23T01:43:44;6.07;;;4.00;;
26946;SDS011;14501;52.282;10.560;2023-04-23T01:46:10;4.82;;;4.10;;
26946;SDS011;14501;52.282;10.560;2023-04-23T01:48:36;5.88;;;4.10;;
26946;SDS011;14501;52.282;10.560;2023-04-23T01:51:02;5.22;;;4.18;;
26946;SDS011;14501;52.282;10.560;2023-04-23T01:53:28;6.38;;;4.68;;
26946;SDS011;14501;52.282;10.560;2023-04-23T01:55:54;7.70;;;5.15;;
26946;SDS011;14501;52.282;10.560;2023-04-23T01:58:20;6.47;;;4.10;;
26946;SDS011;14501;52.282;10.560;2023-04-23T02:00:47;8.50;;;4.90;;
26946;SDS011;14501;52.282;10.560;2023-04-23T02:03:13;8.10;;;4.25;;
26946;SDS011;14501;52.282;10.560;2023-04-23T02:05:39;6.13;;;4.20;;
26946;SDS011;14501;52.282;10.560;2023-04-23T02:08:06;5.25;;;4.20;;
26946;SDS011;14501;52.282;10.560;2023-04-23T02:10:31;4.85;;;4.18;;
26946;SDS011;14501;52.282;10.560;2023-04-23T02:12:57;6.65;;;4.43;;
26946;SDS011;14501;52.282;10.560;2023-04-23T02:15:23;5.90;;;4.43;;
26946;SDS011;14501;52.282;10.560;2023-04-23T02:17:49;5.95;;;4.32;;
26946;SDS011;14501;52.282;10.560;2023-04-23T02:20:16;6.18;;;4.85;;
26946;SDS011;14501;52.282;10.560;2023-04-23T02:22:42;5.90;;;4.70;;
26946;SDS011;14501;52.282;10.560;2023-04-23T02:25:08;6.07;;;4.00;;
26946;SDS011;14501;52.282;10.560;2023-04-23T02:27:34;7.57;;;5.07;;
26946;SDS011;14501;52.282;10.560;2023-04-23T02:30:00;10.48;;;4.85;;
26946;SDS011;14501;52.282;10.560;2023-04-23T02:32:26;7.75;;;4.40;;
26946;SDS011;14501;52.282;10.560;2023-04-23T02:34:52;6.22;;;4.70;;
26946;SDS011;14501;52.282;10.560;2023-04-23T02:37:18;6.97;;;4.50;;
26946;SDS011;14501;52.282;10.560;2023-04-23T02:39:44;9.40;;;5.13;;
26946;SDS011;14501;52.282;10.560;2023-04-23T02:42:10;6.05;;;5.00;;
26946;SDS011;14501;52.282;10.560;2023-04-23T02:44:35;6.20;;;4.60;;
26946;SDS011;14501;52.282;10.560;2023-04-23T02:47:01;9.35;;;5.22;;
26946;SDS011;14501;52.282;10.560;2023-04-23T02:49:27;6.88;;;5.18;;
26946;SDS011;14501;52.282;10.560;2023-04-23T02:51:52;7.85;;;4.93;;
26946;SDS011;14501;52.282;10.560;2023-04-23T02:54:18;8.93;;;5.60;;
26946;SDS011;14501;52.282;10.560;2023-04-23T02:56:44;8.52;;;5.63;;
26946;SDS011;14501;52.282;10.560;2023-04-23T02:59:09;5.88;;;4.75;;
26946;SDS011;14501;52.282;10.560;2023-04-23T03:01:35;5.75;;;4.75;;
26946;SDS011;14501;52.282;10.560;2023-04-23T03:04:00;5.68;;;4.65;;
26946;SDS011;14501;52.282;10.560;2023-04-23T03:06:27;7.80;;;5.82;;
26946;SDS011;14501;52.282;10.560;2023-04-23T03:08:53;9.07;;;5.15;;
26946;SDS011;14501;52.282;10.560;2023-04-23T03:11:18;8.98;;;5.03;;
26946;SDS011;14501;52.282;10.560;2023-04-23T03:13:44;12.18;;;5.43;;
26946;SDS011;14501;52.282;10.560;2023-04-23T03:16:09;8.38;;;5.88;;
26946;SDS011;14501;52.282;10.560;2023-04-23T03:18:35;6.30;;;5.18;;
26946;SDS011;14501;52.282;10.560;2023-04-23T03:21:01;7.30;;;5.50;;
26946;SDS011;14501;52.282;10.560;2023-04-23T03:23:26;8.77;;;5.88;;
26946;SDS011;14501;52.282;10.560;2023-04-23T03:25:52;7.38;;;5.35;;
26946;SDS011;14501;52.282;10.560;2023-04-23T03:28:17;8.13;;;6.20;;
26946;SDS011;14501;52.282;10.560;2023-04-23T03:30:43;11.45;;;6.82;;
26946;SDS011;14501;52.282;10.560;2023-04-23T03:33:09;10.07;;;6.78;;
26946;SDS011;14501;52.282;10.560;2023-04-23T03:35:34;9.90;;;6.60;;
26946;SDS011;14501;52.282;10.560;2023-04-23T03:38:00;12.00;;;7.50;;
26946;SDS011;14501;52.282;10.560;2023-04-23T03:40:27;16.67;;;8.43;;
26946;SDS011;14501;52.282;10.560;2023-04-23T03:42:52;10.60;;;7.93;;
26946;SDS011;14501;52.282;10.560;2023-04-23T03:45:18;13.45;;;8.68;;
26946;SDS011;14501;52.282;10.560;2023-04-23T03:47:43;14.73;;;9.70;;
26946;SDS011;14501;52.282;10.560;2023-04-23T03:50:10;14.30;;;8.93;;
26946;SDS011;14501;52.282;10.560;2023-04-23T03:52:38;16.52;;;10.02;;
26946;SDS011;14501;52.282;10.560;2023-04-23T03:55:04;14.38;;;9.70;;
26946;SDS011;14501;52.282;10.560;2023-04-23T03:57:31;17.95;;;10.80;;
26946;SDS011;14501;52.282;10.560;2023-04-23T03:59:57;19.27;;;12.20;;
26946;SDS011;14501;52.282;10.560;2023-04-23T04:02:22;21.88;;;13.18;;
26946;SDS011;14501;52.282;10.560;2023-04-23T04:04:48;28.60;;;14.50;;
26946;SDS011;14501;52.282;10.560;2023-04-23T04:07:15;29.10;;;17.20;;
26946;SDS011;14501;52.282;10.560;2023-04-23T04:09:41;31.15;;;17.05;;
26946;SDS011;14501;52.282;10.560;2023-04-23T04:12:07;36.80;;;17.77;;
26946;SDS011;14501;52.282;10.560;2023-04-23T04:14:32;31.00;;;17.65;;
26946;SDS011;14501;52.282;10.560;2023-04-23T04:16:58;34.00;;;19.38;;
26946;SDS011;14501;52.282;10.560;2023-04-23T04:19:24;36.35;;;19.08;;
26946;SDS011;14501;52.282;10.560;2023-04-23T04:21:49;34.58;;;19.08;;
26946;SDS011;14501;52.282;10.560;2023-04-23T04:24:16;38.38;;;19.30;;
26946;SDS011;14501;52.282;10.560;2023-04-23T04:26:42;39.85;;;19.10;;
26946;SDS011;14501;52.282;10.560;2023-04-23T04:29:09;39.58;;;19.40;;
26946;SDS011;14501;52.282;10.560;2023-04-23T04:31:35;37.50;;;19.35;;
26946;SDS011;14501;52.282;10.560;2023-04-23T04:34:01;38.20;;;20.17;;
26946;SDS011;14501;52.282;10.560;2023-04-23T04:36:27;39.40;;;19.23;;
26946;SDS011;14501;52.282;10.560;2023-04-23T04:38:53;38.80;;;20.95;;
26946;SDS011;14501;52.282;10.560;2023-04-23T04:41:20;36.25;;;19.42;;
26946;SDS011;14501;52.282;10.560;2023-04-23T04:43:46;37.75;;;19.83;;
26946;SDS011;14501;52.282;10.560;2023-04-23T04:46:12;41.83;;;21.48;;
26946;SDS011;14501;52.282;10.560;2023-04-23T04:48:39;43.50;;;21.70;;
26946;SDS011;14501;52.282;10.560;2023-04-23T04:51:05;45.08;;;21.52;;
26946;SDS011;14501;52.282;10.560;2023-04-23T04:53:31;42.13;;;22.77;;
26946;SDS011;14501;52.282;10.560;2023-04-23T04:55:57;46.03;;;22.13;;
26946;SDS011;14501;52.282;10.560;2023-04-23T04:58:22;47.88;;;22.10;;
26946;SDS011;14501;52.282;10.560;2023-04-23T05:00:48;44.42;;;20.73;;
26946;SDS011;14501;52.282;10.560;2023-04-23T05:03:16;47.33;;;21.80;;
26946;SDS011;14501;52.282;10.560;2023-04-23T05:05:43;42.53;;;21.35;;
26946;SDS011;14501;52.282;10.560;2023-04-23T05:08:09;45.63;;;22.98;;
26946;SDS011;14501;52.282;10.560;2023-04-23T05:10:35;52.83;;;23.77;;
26946;SDS011;14501;52.282;10.560;2023-04-23T05:13:00;48.40;;;23.55;;
26946;SDS011;14501;52.282;10.560;2023-04-23T05:15:26;47.67;;;21.65;;
26946;SDS011;14501;52.282;10.560;2023-04-23T05:17:52;43.20;;;23.23;;
26946;SDS011;14501;52.282;10.560;2023-04-23T05:20:18;49.00;;;23.30;;
26946;SDS011;14501;52.282;10.560;2023-04-23T05:22:44;47.17;;;23.00;;
26946;SDS011;14501;52.282;10.560;2023-04-23T05:25:10;52.97;;;23.25;;
26946;SDS011;14501;52.282;10.560;2023-04-23T05:27:36;52.03;;;24.10;;
26946;SDS011;14501;52.282;10.560;2023-04-23T05:30:02;49.72;;;23.52;;
26946;SDS011;14501;52.282;10.560;2023-04-23T05:32:30;49.13;;;23.90;;
26946;SDS011;14501;52.282;10.560;2023-04-23T05:34:56;48.22;;;22.92;;
26946;SDS011;14501;52.282;10.560;2023-04-23T05:37:21;46.50;;;23.50;;
26946;SDS011;14501;52.282;10.560;2023-04-23T05:39:47;45.20;;;23.50;;
26946;SDS011;14501;52.282;10.560;2023-04-23T05:42:13;45.40;;;23.38;;
26946;SDS011;14501;52.282;10.560;2023-04-23T05:44:38;47.97;;;23.70;;
26946;SDS011;14501;52.282;10.560;2023-04-23T05:47:05;47.13;;;23.42;;
26946;SDS011;14501;52.282;10.560;2023-04-23T05:49:31;45.53;;;23.98;;
26946;SDS011;14501;52.282;10.560;2023-04-23T05:51:57;45.22;;;22.92;;
26946;SDS011;14501;52.282;10.560;2023-04-23T05:54:23;42.33;;;23.02;;
26946;SDS011;14501;52.282;10.560;2023-04-23T05:56:49;42.95;;;21.50;;
26946;SDS011;14501;52.282;10.560;2023-04-23T05:59:15;44.30;;;21.83;;
26946;SDS011;14501;52.282;10.560;2023-04-23T06:01:41;40.92;;;22.33;;
26946;SDS011;14501;52.282;10.560;2023-04-23T06:04:06;42.95;;;22.52;;
26946;SDS011;14501;52.282;10.560;2023-04-23T06:06:32;41.13;;;21.73;;
26946;SDS011;14501;52.282;10.560;2023-04-23T06:08:58;41.28;;;23.45;;
26946;SDS011;14501;52.282;10.560;2023-04-23T06:11:23;40.60;;;21.70;;
26946;SDS011;14501;52.282;10.560;2023-04-23T06:13:49;41.75;;;22.23;;
26946;SDS011;14501;52.282;10.560;2023-04-23T06:16:15;43.08;;;22.50;;
26946;SDS011;14501;52.282;10.560;2023-04-23T06:18:40;36.95;;;21.20;;
26946;SDS011;14501;52.282;10.560;2023-04-23T06:21:06;41.85;;;21.95;;
26946;SDS011;14501;52.282;10.560;2023-04-23T06:23:33;40.47;;;23.58;;
26946;SDS011;14501;52.282;10.560;2023-04-23T06:25:59;47.65;;;24.40;;
26946;SDS011;14501;52.282;10.560;2023-04-23T06:28:25;48.15;;;24.42;;
26946;SDS011;14501;52.282;10.560;2023-04-23T06:30:51;39.80;;;22.02;;
26946;SDS011;14501;52.282;10.560;2023-04-23T06:33:16;45.40;;;24.52;;
26946;SDS011;14501;52.282;10.560;2023-04-23T06:35:42;42.67;;;23.48;;
26946;SDS011;14501;52.282;10.560;2023-04-23T06:38:08;41.95;;;24.08;;
26946;SDS011;14501;52.282;10.560;2023-04-23T06:40:33;43.65;;;23.80;;
26946;SDS011;14501;52.282;10.560;2023-04-23T06:42:59;44.15;;;24.30;;
26946;SDS011;14501;52.282;10.560;2023-04-23T06:48:02;45.75;;;23.20;;
26946;SDS011;14501;52.282;10.560;2023-04-23T06:50:28;43.85;;;24.50;;
26946;SDS011;14501;52.282;10.560;2023-04-23T06:52:53;43.88;;;23.90;;
26946;SDS011;14501;52.282;10.560;2023-04-23T06:55:20;50.83;;;26.20;;
26946;SDS011;14501;52.282;10.560;2023-04-23T06:57:50;47.53;;;25.35;;
26946;SDS011;14501;52.282;10.560;2023-04-23T07:00:18;45.30;;;25.17;;
26946;SDS011;14501;52.282;10.560;2023-04-23T07:02:44;50.75;;;24.92;;
26946;SDS011;14501;52.282;10.560;2023-04-23T07:05:11;45.60;;;25.48;;
26946;SDS011;14501;52.282;10.560;2023-04-23T07:07:36;43.88;;;23.20;;
26946;SDS011;14501;52.282;10.560;2023-04-23T07:10:03;45.95;;;24.25;;
26946;SDS011;14501;52.282;10.560;2023-04-23T07:12:29;45.38;;;24.13;;
26946;SDS011;14501;52.282;10.560;2023-04-23T07:14:55;46.47;;;25.90;;
26946;SDS011;14501;52.282;10.560;2023-04-23T07:17:21;45.10;;;24.40;;
26946;SDS011;14501;52.282;10.560;2023-04-23T07:19:46;46.15;;;24.35;;
26946;SDS011;14501;52.282;10.560;2023-04-23T07:22:12;40.88;;;23.05;;
26946;SDS011;14501;52.282;10.560;2023-04-23T07:24:38;45.92;;;23.95;;
26946;SDS011;14501;52.282;10.560;2023-04-23T07:27:04;42.75;;;23.42;;
26946;SDS011;14501;52.282;10.560;2023-04-23T07:29:30;44.60;;;24.67;;
26946;SDS011;14501;52.282;10.560;2023-04-23T07:31:56;40.85;;;22.42;;
26946;SDS011;14501;52.282;10.560;2023-04-23T07:34:21;39.03;;;22.33;;
26946;SDS011;14501;52.282;10.560;2023-04-23T07:36:47;41.78;;;23.70;;
26946;SDS011;14501;52.282;10.560;2023-04-23T07:39:13;38.25;;;21.90;;
26946;SDS011;14501;52.282;10.560;2023-04-23T07:41:38;40.97;;;21.58;;
26946;SDS011;14501;52.282;10.560;2023-04-23T07:44:04;35.67;;;20.05;;
26946;SDS011;14501;52.282;10.560;2023-04-23T07:46:30;38.03;;;22.00;;
26946;SDS011;14501;52.282;10.560;2023-04-23T07:48:55;37.97;;;21.00;;
26946;SDS011;14501;52.282;10.560;2023-04-23T07:51:21;41.63;;;22.13;;
26946;SDS011;14501;52.282;10.560;2023-04-23T07:53:50;34.72;;;20.50;;
26946;SDS011;14501;52.282;10.560;2023-04-23T07:56:18;32.47;;;19.23;;
26946;SDS011;14501;52.282;10.560;2023-04-23T07:58:45;36.25;;;20.40;;
26946;SDS011;14501;52.282;10.560;2023-04-23T08:01:11;31.63;;;18.55;;
26946;SDS011;14501;52.282;10.560;2023-04-23T08:03:36;31.88;;;19.00;;
26946;SDS011;14501;52.282;10.560;2023-04-23T08:06:02;31.73;;;18.10;;
26946;SDS011;14501;52.282;10.560;2023-04-23T08:08:28;27.77;;;17.02;;
26946;SDS011;14501;52.282;10.560;2023-04-23T08:10:54;27.55;;;16.95;;
26946;SDS011;14501;52.282;10.560;2023-04-23T08:13:20;25.65;;;15.65;;
26946;SDS011;14501;52.282;10.560;2023-04-23T08:15:46;23.70;;;16.48;;
26946;SDS011;14501;52.282;10.560;2023-04-23T08:18:13;23.77;;;15.73;;
26946;SDS011;14501;52.282;10.560;2023-04-23T08:20:38;23.40;;;15.00;;
26946;SDS011;14501;52.282;10.560;2023-04-23T08:23:04;21.70;;;14.02;;
26946;SDS011;14501;52.282;10.560;2023-04-23T08:25:30;22.10;;;13.55;;
26946;SDS011;14501;52.282;10.560;2023-04-23T08:27:56;19.55;;;13.73;;
26946;SDS011;14501;52.282;10.560;2023-04-23T08:30:22;16.27;;;11.73;;
26946;SDS011;14501;52.282;10.560;2023-04-23T08:32:49;15.45;;;11.57;;
26946;SDS011;14501;52.282;10.560;2023-04-23T08:35:17;16.13;;;12.50;;
26946;SDS011;14501;52.282;10.560;2023-04-23T08:37:43;15.10;;;11.85;;
26946;SDS011;14501;52.282;10.560;2023-04-23T08:40:09;16.25;;;11.60;;
26946;SDS011;14501;52.282;10.560;2023-04-23T08:42:37;16.05;;;11.40;;
26946;SDS011;14501;52.282;10.560;2023-04-23T08:45:16;15.43;;;11.98;;
26946;SDS011;14501;52.282;10.560;2023-04-23T08:47:43;13.95;;;11.07;;
26946;SDS011;14501;52.282;10.560;2023-04-23T08:50:10;14.38;;;11.20;;
26946;SDS011;14501;52.282;10.560;2023-04-23T08:52:38;15.52;;;11.40;;
26946;SDS011;14501;52.282;10.560;2023-04-23T08:55:06;16.15;;;11.55;;
26946;SDS011;14501;52.282;10.560;2023-04-23T08:57:34;13.95;;;10.85;;
26946;SDS011;14501;52.282;10.560;2023-04-23T09:00:03;13.20;;;10.05;;
26946;SDS011;14501;52.282;10.560;2023-04-23T09:02:33;13.60;;;10.82;;
26946;SDS011;14501;52.282;10.560;2023-04-23T09:05:01;13.48;;;11.57;;
26946;SDS011;14501;52.282;10.560;2023-04-23T09:07:30;13.85;;;9.90;;
26946;SDS011;14501;52.282;10.560;2023-04-23T09:09:57;12.38;;;9.95;;
26946;SDS011;14501;52.282;10.560;2023-04-23T09:12:23;13.95;;;10.65;;
26946;SDS011;14501;52.282;10.560;2023-04-23T09:14:49;12.93;;;10.27;;
26946;SDS011;14501;52.282;10.560;2023-04-23T09:17:15;11.65;;;9.45;;
26946;SDS011;14501;52.282;10.560;2023-04-23T09:19:42;12.10;;;9.13;;
26946;SDS011;14501;52.282;10.560;2023-04-23T09:22:10;9.60;;;8.10;;
26946;SDS011;14501;52.282;10.560;2023-04-23T09:24:37;8.40;;;7.15;;
26946;SDS011;14501;52.282;10.560;2023-04-23T09:27:07;10.90;;;9.18;;
26946;SDS011;14501;52.282;10.560;2023-04-23T09:29:33;13.45;;;9.35;;
26946;SDS011;14501;52.282;10.560;2023-04-23T09:32:07;11.85;;;8.95;;
26946;SDS011;14501;52.282;10.560;2023-04-23T09:34:34;10.68;;;8.70;;
26946;SDS011;14501;52.282;10.560;2023-04-23T09:37:04;11.30;;;8.38;;
26946;SDS011;14501;52.282;10.560;2023-04-23T09:39:34;10.93;;;8.35;;
26946;SDS011;14501;52.282;10.560;2023-04-23T09:42:04;7.82;;;6.43;;
26946;SDS011;14501;52.282;10.560;2023-04-23T09:44:33;8.23;;;6.32;;
26946;SDS011;14501;52.282;10.560;2023-04-23T09:47:08;9.10;;;7.55;;
26946;SDS011;14501;52.282;10.560;2023-04-23T09:49:46;10.02;;;8.00;;
26946;SDS011;14501;52.282;10.560;2023-04-23T09:52:13;10.07;;;7.20;;
26946;SDS011;14501;52.282;10.560;2023-04-23T09:54:38;8.85;;;7.28;;
26946;SDS011;14501;52.282;10.560;2023-04-23T09:57:04;8.95;;;7.05;;
26946;SDS011;14501;52.282;10.560;2023-04-23T09:59:33;8.85;;;6.97;;
26946;SDS011;14501;52.282;10.560;2023-04-23T10:02:03;10.07;;;7.60;;
26946;SDS011;14501;52.282;10.560;2023-04-23T10:04:30;10.57;;;7.07;;
26946;SDS011;14501;52.282;10.560;2023-04-23T10:06:57;9.30;;;6.75;;
26946;SDS011;14501;52.282;10.560;2023-04-23T10:09:24;10.95;;;7.53;;
26946;SDS011;14501;52.282;10.560;2023-04-23T10:11:53;10.27;;;7.40;;
26946;SDS011;14501;52.282;10.560;2023-04-23T10:14:23;10.32;;;6.60;;
26946;SDS011;14501;52.282;10.560;2023-04-23T10:16:50;11.32;;;7.40;;
26946;SDS011;14501;52.282;10.560;2023-04-23T10:19:23;11.73;;;7.80;;
26946;SDS011;14501;52.282;10.560;2023-04-23T10:21:53;9.27;;;7.68;;
26946;SDS011;14501;52.282;10.560;2023-04-23T10:24:24;10.95;;;8.52;;
26946;SDS011;14501;52.282;10.560;2023-04-23T10:26:58;10.75;;;7.20;;
26946;SDS011;14501;52.282;10.560;2023-04-23T10:29:27;10.07;;;6.72;;
26946;SDS011;14501;52.282;10.560;2023-04-23T10:32:01;8.07;;;6.45;;
26946;SDS011;14501;52.282;10.560;2023-04-23T10:34:28;8.07;;;6.25;;
26946;SDS011;14501;52.282;10.560;2023-04-23T10:36:55;8.93;;;6.25;;
26946;SDS011;14501;52.282;10.560;2023-04-23T10:39:27;7.75;;;5.47;;
26946;SDS011;14501;52.282;10.560;2023-04-23T10:41:54;8.95;;;6.85;;
26946;SDS011;14501;52.282;10.560;2023-04-23T10:44:21;8.15;;;5.60;;
26946;SDS011;14501;52.282;10.560;2023-04-23T10:46:53;8.07;;;5.25;;
26946;SDS011;14501;52.282;10.560;2023-04-23T10:49:24;6.65;;;4.45;;
26946;SDS011;14501;52.282;10.560;2023-04-23T10:51:59;5.90;;;4.47;;
26946;SDS011;14501;52.282;10.560;2023-04-23T10:54:30;7.63;;;4.90;;
26946;SDS011;14501;52.282;10.560;2023-04-23T10:56:57;6.82;;;4.93;;
26946;SDS011;14501;52.282;10.560;2023-04-23T10:59:24;7.53;;;5.45;;
26946;SDS011;14501;52.282;10.560;2023-04-23T11:01:50;6.63;;;5.03;;
26946;SDS011;14501;52.282;10.560;2023-04-23T11:04:23;6.15;;;4.65;;
26946;SDS011;14501;52.282;10.560;2023-04-23T11:06:51;8.95;;;6.00;;
26946;SDS011;14501;52.282;10.560;2023-04-23T11:09:29;7.43;;;5.80;;
26946;SDS011;14501;52.282;10.560;2023-04-23T11:14:52;9.45;;;6.32;;
26946;SDS011;14501;52.282;10.560;2023-04-23T11:17:23;5.97;;;4.45;;
26946;SDS011;14501;52.282;10.560;2023-04-23T11:20:10;6.68;;;4.90;;
26946;SDS011;14501;52.282;10.560;2023-04-23T11:22:44;8.20;;;5.20;;
26946;SDS011;14501;52.282;10.560;2023-04-23T11:27:47;7.03;;;4.78;;
26946;SDS011;14501;52.282;10.560;2023-04-23T11:30:16;4.85;;;4.15;;
26946;SDS011;14501;52.282;10.560;2023-04-23T11:32:44;6.10;;;4.68;;
26946;SDS011;14501;52.282;10.560;2023-04-23T11:35:12;7.72;;;5.07;;
26946;SDS011;14501;52.282;10.560;2023-04-23T11:37:39;7.47;;;4.82;;
26946;SDS011;14501;52.282;10.560;2023-04-23T11:40:10;8.88;;;5.38;;
26946;SDS011;14501;52.282;10.560;2023-04-23T11:42:41;7.15;;;5.10;;
26946;SDS011;14501;52.282;10.560;2023-04-23T11:45:20;6.03;;;4.25;;
26946;SDS011;14501;52.282;10.560;2023-04-23T11:47:49;6.07;;;4.72;;
26946;SDS011;14501;52.282;10.560;2023-04-23T11:50:20;4.85;;;4.18;;
26946;SDS011;14501;52.282;10.560;2023-04-23T11:52:47;7.75;;;4.70;;
26946;SDS011;14501;52.282;10.560;2023-04-23T11:55:12;6.63;;;4.18;;
26946;SDS011;14501;52.282;10.560;2023-04-23T11:57:45;6.05;;;3.70;;
26946;SDS011;14501;52.282;10.560;2023-04-23T12:00:19;5.78;;;4.03;;
26946;SDS011;14501;52.282;10.560;2023-04-23T12:05:32;7.00;;;4.70;;
26946;SDS011;14501;52.282;10.560;2023-04-23T12:08:07;8.48;;;4.70;;
26946;SDS011;14501;52.282;10.560;2023-04-23T12:10:40;7.63;;;5.13;;
26946;SDS011;14501;52.282;10.560;2023-04-23T12:13:15;8.45;;;4.10;;
26946;SDS011;14501;52.282;10.560;2023-04-23T12:15:49;5.13;;;3.65;;
26946;SDS011;14501;52.282;10.560;2023-04-23T12:18:17;6.38;;;3.65;;
26946;SDS011;14501;52.282;10.560;2023-04-23T12:20:43;5.90;;;4.22;;
26946;SDS011;14501;52.282;10.560;2023-04-23T12:23:10;6.22;;;4.70;;
26946;SDS011;14501;52.282;10.560;2023-04-23T12:25:36;5.22;;;3.92;;
26946;SDS011;14501;52.282;10.560;2023-04-23T12:28:05;5.00;;;3.67;;
26946;SDS011;14501;52.282;10.560;2023-04-23T12:30:31;5.93;;;3.78;;
26946;SDS011;14501;52.282;10.560;2023-04-23T12:32:58;5.22;;;3.35;;
26946;SDS011;14501;52.282;10.560;2023-04-23T12:35:36;4.68;;;4.03;;
26946;SDS011;14501;52.282;10.560;2023-04-23T12:38:04;5.53;;;3.85;;
26946;SDS011;14501;52.282;10.560;2023-04-23T12:40:30;4.50;;;4.03;;
26946;SDS011;14501;52.282;10.560;2023-04-23T12:42:55;5.47;;;3.88;;
26946;SDS011;14501;52.282;10.560;2023-04-23T12:45:21;5.40;;;3.67;;
26946;SDS011;14501;52.282;10.560;2023-04-23T12:47:47;4.43;;;3.40;;
26946;SDS011;14501;52.282;10.560;2023-04-23T12:50:13;7.05;;;3.35;;
26946;SDS011;14501;52.282;10.560;2023-04-23T12:52:38;3.63;;;3.22;;
26946;SDS011;14501;52.282;10.560;2023-04-23T12:55:04;5.65;;;3.78;;
26946;SDS011;14501;52.282;10.560;2023-04-23T12:57:30;3.53;;;2.75;;
26946;SDS011;14501;52.282;10.560;2023-04-23T12:59:56;3.45;;;2.95;;
26946;SDS011;14501;52.282;10.560;2023-04-23T13:02:22;3.92;;;2.90;;
26946;SDS011;14501;52.282;10.560;2023-04-23T13:04:50;4.35;;;3.00;;
26946;SDS011;14501;52.282;10.560;2023-04-23T13:07:15;3.85;;;2.40;;
26946;SDS011;14501;52.282;10.560;2023-04-23T13:09:41;3.33;;;2.50;;
26946;SDS011;14501;52.282;10.560;2023-04-23T13:12:08;3.25;;;2.60;;
26946;SDS011;14501;52.282;10.560;2023-04-23T13:14:34;2.75;;;1.98;;
26946;SDS011;14501;52.282;10.560;2023-04-23T13:17:00;3.47;;;2.33;;
26946;SDS011;14501;52.282;10.560;2023-04-23T13:19:25;2.72;;;1.73;;
26946;SDS011;14501;52.282;10.560;2023-04-23T13:21:52;1.98;;;1.88;;
26946;SDS011;14501;52.282;10.560;2023-04-23T13:24:18;2.00;;;1.70;;
26946;SDS011;14501;52.282;10.560;2023-04-23T13:26:43;1.90;;;1.70;;
26946;SDS011;14501;52.282;10.560;2023-04-23T13:29:10;4.20;;;1.80;;
26946;SDS011;14501;52.282;10.560;2023-04-23T13:31:37;2.15;;;1.60;;
26946;SDS011;14501;52.282;10.560;2023-04-23T13:34:03;2.13;;;1.60;;
26946;SDS011;14501;52.282;10.560;2023-04-23T13:36:29;3.70;;;1.92;;
26946;SDS011;14501;52.282;10.560;2023-04-23T13:38:54;2.75;;;2.47;;
26946;SDS011;14501;52.282;10.560;2023-04-23T13:41:20;2.47;;;2.28;;
26946;SDS011;14501;52.282;10.560;2023-04-23T13:43:46;4.38;;;2.47;;
26946;SDS011;14501;52.282;10.560;2023-04-23T13:46:11;3.28;;;2.55;;
26946;SDS011;14501;52.282;10.560;2023-04-23T13:48:38;2.97;;;2.55;;
26946;SDS011;14501;52.282;10.560;2023-04-23T13:51:04;2.83;;;2.40;;
26946;SDS011;14501;52.282;10.560;2023-04-23T13:53:30;3.03;;;2.58;;
26946;SDS011;14501;52.282;10.560;2023-04-23T13:55:55;2.55;;;2.10;;
26946;SDS011;14501;52.282;10.560;2023-04-23T13:58:24;2.83;;;2.17;;
26946;SDS011;14501;52.282;10.560;2023-04-23T14:00:50;4.35;;;2.88;;
26946;SDS011;14501;52.282;10.560;2023-04-23T14:03:16;2.70;;;2.30;;
26946;SDS011;14501;52.282;10.560;2023-04-23T14:05:41;5.03;;;2.35;;
26946;SDS011;14501;52.282;10.560;2023-04-23T14:08:07;2.92;;;2.58;;
26946;SDS011;14501;52.282;10.560;2023-04-23T14:10:33;2.95;;;2.35;;
26946;SDS011;14501;52.282;10.560;2023-04-23T14:12:59;3.55;;;2.40;;
26946;SDS011;14501;52.282;10.560;2023-04-23T14:15:26;3.05;;;2.72;;
26946;SDS011;14501;52.282;10.560;2023-04-23T14:17:52;2.78;;;2.47;;
26946;SDS011;14501;52.282;10.560;2023-04-23T14:20:17;3.65;;;2.53;;
26946;SDS011;14501;52.282;10.560;2023-04-23T14:22:47;2.75;;;2.17;;
26946;SDS011;14501;52.282;10.560;2023-04-23T14:25:15;2.42;;;1.92;;
26946;SDS011;14501;52.282;10.560;2023-04-23T14:30:56;2.13;;;1.52;;
26946;SDS011;14501;52.282;10.560;2023-04-23T14:33:22;2.20;;;1.40;;
26946;SDS011;14501;52.282;10.560;2023-04-23T14:35:48;2.35;;;1.70;;